Time;durP1;ratioP1;P1;durP2;ratioP2;P2;SDS_P1;SDS_P2;PMS_P1;PMS_P2;Temp;Humidity;BMP_temperature;BMP_pressure;BME280_temperature;BME280_humidity;BME280_pressure;Samples;Min_cycle;Max_cycle;Signal;HPM_P1;HPM_P2
2022/06/11 00:00:32;;;;;;;3.95;2.22;;;;;;;16.09;69.80;99215.22;4091061;28;20830;-59
2022/06/11 00:02:34;;;;;;;3.45;2.40;;;;;;;16.13;70.04;99216.34;4095974;28;20314;-56
2022/06/11 00:04:39;;;;;;;4.28;2.50;;;;;;;16.18;70.07;99213.63;4094980;28;20207;-55
2022/06/11 00:06:44;;;;;;;3.35;2.53;;;;;;;16.14;69.91;99206.13;4100382;28;20204;-54
2022/06/11 00:08:47;;;;;;;11.38;3.60;;;;;;;15.99;70.61;99203.28;4096442;28;20279;-54
2022/06/11 00:10:48;;;;;;;2.63;1.85;;;;;;;15.88;70.94;99207.91;4094271;28;20564;-54
2022/06/11 00:12:50;;;;;;;3.47;2.25;;;;;;;15.92;70.82;99209.06;4104975;28;20230;-54
2022/06/11 00:14:52;;;;;;;7.25;2.83;;;;;;;15.95;70.54;99211.28;4092826;28;20230;-54
2022/06/11 00:16:54;;;;;;;4.82;2.60;;;;;;;15.94;70.55;99215.13;4093320;28;20210;-54
2022/06/11 00:18:57;;;;;;;2.25;2.05;;;;;;;15.85;70.92;99211.22;4097238;28;20214;-54
2022/06/11 00:20:58;;;;;;;4.05;2.00;;;;;;;15.82;71.07;99206.22;4092837;28;20331;-54
2022/06/11 00:23:00;;;;;;;2.75;1.88;;;;;;;15.85;70.83;99214.00;4105787;28;20233;-54
2022/06/11 00:25:04;;;;;;;4.15;2.47;;;;;;;16.09;70.54;99215.22;4093940;28;20249;-55
2022/06/11 00:27:07;;;;;;;4.45;2.92;;;;;;;16.00;70.74;99221.50;4089690;28;20331;-55
2022/06/11 00:29:11;;;;;;;4.47;3.13;;;;;;;16.05;70.37;99216.88;4093624;28;20293;-54
2022/06/11 00:31:13;;;;;;;4.60;4.03;;;;;;;16.08;70.58;99219.06;4095804;28;20207;-55
2022/06/11 00:33:15;;;;;;;4.75;3.92;;;;;;;15.92;71.38;99214.56;4092163;28;20307;-54
2022/06/11 00:35:16;;;;;;;6.53;3.78;;;;;;;15.95;71.07;99214.03;4093891;28;20223;-56
2022/06/11 00:37:20;;;;;;;2.97;2.45;;;;;;;15.96;70.78;99218.44;4098014;28;20203;-58
2022/06/11 00:39:26;;;;;;;5.43;2.70;;;;;;;16.04;70.81;99215.16;4091497;28;20710;-57
2022/06/11 00:41:29;;;;;;;3.75;2.03;;;;;;;15.98;70.86;99213.50;4091479;28;20299;-56
2022/06/11 00:43:31;;;;;;;6.10;2.15;;;;;;;15.95;70.91;99207.69;4097009;28;21334;-55
2022/06/11 00:45:34;;;;;;;2.75;2.33;;;;;;;15.90;71.31;99208.47;4093918;28;20294;-55
2022/06/11 00:47:36;;;;;;;3.33;2.08;;;;;;;15.76;71.86;99203.72;4091548;28;20715;-54
2022/06/11 00:49:45;;;;;;;3.30;2.55;;;;;;;15.70;71.92;99205.59;4093511;28;20210;-55
2022/06/11 00:51:47;;;;;;;2.25;1.73;;;;;;;15.76;71.68;99207.28;4091062;28;20207;-57
2022/06/11 00:53:53;;;;;;;3.33;2.10;;;;;;;15.62;71.96;99197.81;4109478;28;20750;-55
2022/06/11 00:55:54;;;;;;;2.63;2.10;;;;;;;15.64;71.65;99201.13;4103973;28;20226;-57
2022/06/11 00:58:02;;;;;;;5.07;2.67;;;;;;;15.67;71.59;99200.63;4086745;28;20214;-56
2022/06/11 01:00:15;;;;;;;3.00;2.60;;;;;;;15.55;72.34;99199.16;4089422;28;20214;-57
2022/06/11 01:02:17;;;;;;;3.95;3.28;;;;;;;15.37;73.05;99205.09;4082846;28;20682;-56
2022/06/11 01:04:50;;;;;;;7.28;2.83;;;;;;;15.52;72.08;99203.28;4094033;28;20727;-56
2022/06/11 01:06:53;;;;;;;9.75;2.40;;;;;;;15.58;71.83;99202.22;4092467;28;20824;-56
2022/06/11 01:09:19;;;;;;;4.03;2.30;;;;;;;15.64;71.88;99198.38;4090860;28;20306;-56
2022/06/11 01:11:36;;;;;;;2.85;2.00;;;;;;;15.67;71.51;99195.09;4089146;28;20221;-55
2022/06/11 01:13:46;;;;;;;6.32;2.85;;;;;;;15.67;71.75;99195.09;4089693;28;20227;-55
2022/06/11 01:15:53;;;;;;;3.60;2.60;;;;;;;15.68;71.41;99201.44;4089311;28;20207;-54
2022/06/11 01:18:18;;;;;;;8.07;4.13;;;;;;;15.68;71.33;99196.75;4090191;28;20250;-58
2022/06/11 01:20:31;;;;;;;3.13;2.85;;;;;;;15.69;71.58;99203.94;4096797;28;20218;-55
2022/06/11 01:22:45;;;;;;;2.58;2.38;;;;;;;15.69;71.38;99203.13;4093725;28;20226;-57
2022/06/11 01:24:59;;;;;;;7.05;2.92;;;;;;;15.70;71.57;99208.34;4089429;28;20591;-54
2022/06/11 01:27:19;;;;;;;5.40;2.83;;;;;;;15.64;71.50;99200.31;4089617;28;20241;-58
2022/06/11 01:29:36;;;;;;;3.08;2.13;;;;;;;15.63;71.16;99199.47;4089745;28;20210;-57
2022/06/11 01:31:46;;;;;;;6.00;2.35;;;;;;;15.65;71.13;99205.59;4091834;28;20675;-55
2022/06/11 01:34:00;;;;;;;2.83;2.20;;;;;;;15.68;71.02;99202.28;4093199;28;20839;-56
2022/06/11 01:36:08;;;;;;;5.97;3.40;;;;;;;15.71;71.12;99204.47;4087718;28;20770;-56
2022/06/11 01:38:15;;;;;;;3.83;2.67;;;;;;;15.76;71.04;99206.47;4093345;28;20234;-58
2022/06/11 01:40:24;;;;;;;3.78;2.60;;;;;;;15.77;71.18;99205.38;4092474;28;20211;-56
2022/06/11 01:42:31;;;;;;;8.07;2.90;;;;;;;15.75;71.24;99205.63;4104325;28;20296;-57
2022/06/11 01:44:37;;;;;;;4.43;3.00;;;;;;;15.77;71.56;99200.66;4103895;28;20277;-56
2022/06/11 01:46:41;;;;;;;4.53;3.28;;;;;;;15.78;71.72;99202.34;4091023;28;20300;-58
2022/06/11 01:49:21;;;;;;;5.57;3.72;;;;;;;15.73;72.52;99196.78;4094349;28;20246;-56
2022/06/11 01:51:33;;;;;;;3.33;2.78;;;;;;;15.72;72.14;99202.56;4077764;28;20210;-56
2022/06/11 01:53:59;;;;;;;2.70;2.45;;;;;;;15.74;72.08;99201.22;4109119;28;20661;-54
2022/06/11 01:56:17;;;;;;;4.53;2.25;;;;;;;15.55;73.01;99191.69;4108478;28;20218;-54
2022/06/11 01:58:35;;;;;;;3.42;2.75;;;;;;;15.58;73.08;99191.19;4095617;28;20204;-54
2022/06/11 02:00:39;;;;;;;2.83;1.65;;;;;;;15.61;72.75;99198.06;4092747;28;20207;-54
2022/06/11 02:02:52;;;;;;;3.55;2.35;;;;;;;15.56;72.96;99195.31;4090479;28;20231;-56
2022/06/11 02:05:03;;;;;;;5.57;2.53;;;;;;;15.63;72.50;99188.44;4091455;28;20734;-57
2022/06/11 02:07:12;;;;;;;2.45;2.00;;;;;;;15.42;73.23;99197.66;4090352;28;20298;-57
2022/06/11 02:09:26;;;;;;;2.65;1.63;;;;;;;15.37;73.29;99194.88;4092962;28;20200;-55
2022/06/11 02:11:37;;;;;;;2.78;1.85;;;;;;;15.47;72.87;99194.97;4096230;28;20214;-59
2022/06/11 02:13:43;;;;;;;2.72;1.52;;;;;;;15.68;72.28;99193.16;4096383;28;20906;-54
2022/06/11 02:16:08;;;;;;;3.53;2.40;;;;;;;15.60;72.55;99193.66;4094438;28;20210;-56
2022/06/11 02:18:14;;;;;;;3.15;2.00;;;;;;;15.14;73.38;99186.09;4088686;28;20207;-54
2022/06/11 02:20:21;;;;;;;4.05;2.50;;;;;;;15.23;73.46;99187.28;4084188;28;20239;-55
2022/06/11 02:22:35;;;;;;;2.15;2.05;;;;;;;15.22;73.81;99185.63;4088957;28;20233;-55
2022/06/11 02:24:49;;;;;;;2.80;2.10;;;;;;;15.03;74.30;99187.94;4090074;28;20671;-54
2022/06/11 02:26:53;;;;;;;4.20;2.25;;;;;;;15.05;74.30;99188.53;4091776;28;20358;-58
2022/06/11 02:28:56;;;;;;;2.42;2.22;;;;;;;15.16;73.69;99187.50;4086543;28;20727;-56
2022/06/11 02:31:02;;;;;;;2.72;2.33;;;;;;;15.34;73.46;99183.53;4093931;28;20326;-55
2022/06/11 02:33:08;;;;;;;5.38;2.78;;;;;;;15.18;73.90;99188.09;4093318;28;20286;-57
2022/06/11 02:35:13;;;;;;;3.85;2.35;;;;;;;15.30;73.39;99193.41;4089432;28;20258;-58
2022/06/11 02:37:38;;;;;;;3.55;2.20;;;;;;;15.38;72.84;99191.03;4122121;28;20206;-56
2022/06/11 02:39:41;;;;;;;5.45;2.30;;;;;;;15.46;73.12;99193.31;4092593;28;20640;-58
2022/06/11 02:41:43;;;;;;;2.88;1.95;;;;;;;15.50;73.07;99193.59;4108088;28;20313;-54
2022/06/11 02:43:45;;;;;;;2.05;1.63;;;;;;;15.53;73.16;99188.38;4095665;28;20822;-58
2022/06/11 02:45:47;;;;;;;5.38;2.15;;;;;;;15.54;73.11;99190.03;4090777;28;20219;-54
2022/06/11 02:47:51;;;;;;;2.60;1.85;;;;;;;15.59;72.75;99194.75;4091509;28;21324;-57
2022/06/11 02:49:52;;;;;;;3.03;2.30;;;;;;;15.57;72.79;99200.53;4090072;28;20702;-58
2022/06/11 02:51:56;;;;;;;2.63;1.80;;;;;;;15.58;72.94;99202.22;4104913;28;20230;-57
2022/06/11 02:53:58;;;;;;;3.38;2.03;;;;;;;15.69;72.60;99203.94;4091280;28;20283;-54
2022/06/11 02:55:59;;;;;;;3.42;2.38;;;;;;;15.64;72.60;99206.66;4089329;28;20214;-57
2022/06/11 02:58:02;;;;;;;8.25;2.17;;;;;;;15.62;72.38;99203.34;4088689;28;20222;-57
2022/06/11 03:00:09;;;;;;;3.17;1.98;;;;;;;15.61;72.60;99201.69;4089479;28;20200;-57
2022/06/11 03:02:11;;;;;;;3.50;1.83;;;;;;;15.63;72.66;99205.00;4089532;28;20447;-55
2022/06/11 03:04:14;;;;;;;2.85;1.80;;;;;;;15.64;72.55;99212.16;4089682;28;20706;-57
2022/06/11 03:06:16;;;;;;;2.42;1.65;;;;;;;15.64;72.64;99214.94;4093582;28;20218;-55
2022/06/11 03:08:18;;;;;;;4.60;2.63;;;;;;;15.67;72.60;99216.31;4092810;28;20611;-54
2022/06/11 03:10:22;;;;;;;3.33;2.22;;;;;;;15.63;72.79;99218.78;4091786;28;20208;-54
2022/06/11 03:12:23;;;;;;;3.88;2.53;;;;;;;15.65;72.80;99215.78;4090051;28;20247;-55
2022/06/11 03:14:25;;;;;;;2.63;2.28;;;;;;;15.59;72.92;99214.91;4096438;28;20243;-56
2022/06/11 03:16:26;;;;;;;4.25;2.35;;;;;;;15.53;73.33;99212.38;4092281;28;20215;-57
2022/06/11 03:18:28;;;;;;;3.88;2.75;;;;;;;15.35;73.98;99210.84;4090963;28;20294;-56
2022/06/11 03:20:30;;;;;;;6.93;2.45;;;;;;;15.16;74.59;99204.03;4092171;28;20736;-56
2022/06/11 03:22:33;;;;;;;3.72;2.20;;;;;;;15.22;74.38;99203.00;4090106;28;20259;-56
2022/06/11 03:24:35;;;;;;;7.85;2.95;;;;;;;15.18;74.24;99212.91;4087400;28;20218;-55
2022/06/11 03:26:36;;;;;;;4.13;1.98;;;;;;;15.26;73.80;99220.69;4095320;28;20208;-54
2022/06/11 03:28:38;;;;;;;2.38;2.22;;;;;;;15.38;73.58;99215.88;4093015;28;20234;-56
2022/06/11 03:30:40;;;;;;;3.28;2.13;;;;;;;15.43;73.87;99221.41;4088693;28;20204;-56
2022/06/11 03:32:48;;;;;;;16.10;2.92;;;;;;;15.31;74.46;99217.94;4088133;28;20744;-55
2022/06/11 03:34:50;;;;;;;7.10;3.50;;;;;;;15.11;75.07;99215.03;4091644;28;20222;-57
2022/06/11 03:36:52;;;;;;;5.47;2.50;;;;;;;15.19;74.67;99209.03;4090334;28;20207;-59
2022/06/11 03:38:54;;;;;;;2.42;2.05;;;;;;;15.26;74.49;99212.41;4091911;28;20204;-57
2022/06/11 03:40:55;;;;;;;4.30;2.10;;;;;;;15.36;73.85;99215.28;4097461;28;20556;-55
2022/06/11 03:42:57;;;;;;;9.65;3.00;;;;;;;15.38;74.33;99218.63;4096401;28;20358;-56
2022/06/11 03:44:59;;;;;;;7.15;3.53;;;;;;;15.42;73.73;99216.16;4099641;28;20210;-56
2022/06/11 03:47:00;;;;;;;6.22;3.55;;;;;;;15.47;73.75;99219.78;4097127;28;20291;-56
2022/06/11 03:49:03;;;;;;;4.38;3.35;;;;;;;15.50;73.60;99216.47;4095399;28;20234;-58
2022/06/11 03:51:06;;;;;;;3.55;2.35;;;;;;;15.56;73.73;99226.47;4092443;28;20215;-56
2022/06/11 03:53:09;;;;;;;4.65;2.72;;;;;;;15.53;73.60;99221.50;4095211;28;20242;-57
2022/06/11 03:55:12;;;;;;;4.78;2.15;;;;;;;15.56;73.50;99215.44;4093273;28;20219;-57
2022/06/11 03:57:13;;;;;;;2.67;2.33;;;;;;;15.60;73.07;99222.09;4106330;28;20210;-58
2022/06/11 03:59:16;;;;;;;4.45;2.13;;;;;;;15.56;74.29;99220.94;4091285;28;20212;-57
2022/06/11 04:01:19;;;;;;;4.85;2.53;;;;;;;15.43;74.80;99226.91;4093396;28;20213;-56
2022/06/11 04:03:21;;;;;;;4.63;2.38;;;;;;;15.53;74.37;99221.50;4096394;28;20784;-62
2022/06/11 04:05:23;;;;;;;2.95;2.60;;;;;;;15.44;74.77;99227.75;4094883;28;20207;-57
2022/06/11 04:07:25;;;;;;;5.13;2.70;;;;;;;15.47;74.42;99222.53;4094812;28;20706;-56
2022/06/11 04:09:38;;;;;;;3.60;2.30;;;;;;;15.53;73.80;99228.91;4093272;28;20875;-56
2022/06/11 04:11:40;;;;;;;3.50;2.20;;;;;;;15.57;73.85;99228.13;4094062;28;20277;-58
2022/06/11 04:13:43;;;;;;;4.25;2.08;;;;;;;15.62;73.32;99222.66;4091804;28;20313;-55
2022/06/11 04:15:46;;;;;;;5.43;1.92;;;;;;;15.65;73.33;99224.91;4092250;28;20609;-58
2022/06/11 04:17:48;;;;;;;2.90;1.90;;;;;;;15.68;73.39;99218.84;4098675;28;20207;-56
2022/06/11 04:19:50;;;;;;;4.53;2.50;;;;;;;15.72;73.47;99225.50;4097973;28;20203;-54
2022/06/11 04:21:54;;;;;;;5.22;1.83;;;;;;;15.73;73.58;99231.81;4093468;28;20676;-56
2022/06/11 04:23:57;;;;;;;2.00;1.80;;;;;;;15.81;73.33;99234.94;4094921;28;20212;-55
2022/06/11 04:26:02;;;;;;;6.13;2.67;;;;;;;15.76;74.01;99231.31;4095599;28;20673;-56
2022/06/11 04:28:04;;;;;;;2.95;2.42;;;;;;;15.78;73.46;99232.72;4094059;28;20206;-57
2022/06/11 04:30:06;;;;;;;2.40;2.20;;;;;;;15.78;74.09;99229.09;4093243;28;20204;-55
2022/06/11 04:32:09;;;;;;;5.78;2.50;;;;;;;15.57;74.48;99225.38;4094810;28;20606;-54
2022/06/11 04:34:12;;;;;;;2.50;2.10;;;;;;;15.60;74.18;99233.13;4091600;28;20210;-57
2022/06/11 04:36:15;;;;;;;4.18;2.72;;;;;;;15.64;74.52;99234.25;4094735;28;20294;-55
2022/06/11 04:38:17;;;;;;;3.95;2.25;;;;;;;15.71;73.94;99237.59;4094559;28;20242;-55
2022/06/11 04:40:19;;;;;;;3.08;2.40;;;;;;;15.59;74.03;99230.63;4091450;28;20217;-54
2022/06/11 04:42:21;;;;;;;2.60;2.22;;;;;;;15.55;73.99;99241.34;4092906;28;20258;-56
2022/06/11 04:44:23;;;;;;;2.80;2.10;;;;;;;15.63;73.99;99238.09;4092436;28;20223;-54
2022/06/11 04:46:25;;;;;;;3.72;2.15;;;;;;;15.68;73.44;99245.59;4092641;28;20214;-55
2022/06/11 04:48:28;;;;;;;3.83;2.00;;;;;;;15.70;73.43;99244.22;4095587;28;20224;-55
2022/06/11 04:50:31;;;;;;;2.78;2.20;;;;;;;15.74;73.64;99239.84;4093620;28;20885;-55
2022/06/11 04:52:33;;;;;;;4.93;2.47;;;;;;;15.69;73.62;99239.81;4091002;28;20235;-56
2022/06/11 04:54:35;;;;;;;3.20;2.28;;;;;;;15.80;73.10;99249.84;4098689;28;20211;-55
2022/06/11 04:56:37;;;;;;;4.30;2.50;;;;;;;15.78;73.17;99246.50;4092411;28;20560;-55
2022/06/11 04:58:38;;;;;;;2.45;2.15;;;;;;;15.84;72.98;99250.94;4094566;28;20206;-56
2022/06/11 05:00:40;;;;;;;4.18;2.08;;;;;;;15.98;72.67;99260.44;4092209;28;20297;-55
2022/06/11 05:02:41;;;;;;;2.30;2.05;;;;;;;15.96;73.01;99253.53;4095871;28;20219;-54
2022/06/11 05:04:43;;;;;;;2.67;2.30;;;;;;;16.01;72.98;99248.84;4096521;28;20261;-55
2022/06/11 05:06:46;;;;;;;2.33;1.95;;;;;;;15.98;72.93;99246.66;4094915;28;20203;-54
2022/06/11 05:08:48;;;;;;;3.10;2.55;;;;;;;15.91;73.39;99246.00;4092800;28;20318;-54
2022/06/11 05:10:49;;;;;;;4.32;2.50;;;;;;;15.92;73.28;99244.94;4092709;28;20218;-55
2022/06/11 05:12:51;;;;;;;4.80;2.67;;;;;;;15.92;73.29;99246.88;4092379;28;20314;-54
2022/06/11 05:14:52;;;;;;;4.15;2.67;;;;;;;15.93;73.40;99245.75;4096765;28;20229;-54
2022/06/11 05:16:58;;;;;;;6.50;2.15;;;;;;;15.92;73.31;99253.22;4091766;28;20217;-54
2022/06/11 05:19:00;;;;;;;3.92;2.72;;;;;;;15.80;73.30;99255.34;4091515;28;20200;-54
2022/06/11 05:21:03;;;;;;;2.22;2.03;;;;;;;15.84;73.21;99250.94;4094249;28;20237;-55
2022/06/11 05:23:05;;;;;;;3.67;2.60;;;;;;;15.88;72.96;99252.09;4094257;28;20236;-54
2022/06/11 05:25:08;;;;;;;3.60;3.08;;;;;;;15.96;73.04;99248.00;4090896;28;20215;-54
2022/06/11 05:27:17;;;;;;;5.63;3.00;;;;;;;15.98;72.93;99246.66;4095280;28;20595;-55
2022/06/11 05:29:31;;;;;;;4.57;2.13;;;;;;;15.90;73.20;99252.63;4096866;28;20254;-54
2022/06/11 05:31:34;;;;;;;6.15;2.72;;;;;;;15.92;73.38;99246.88;4086960;28;20231;-55
2022/06/11 05:33:35;;;;;;;3.67;3.03;;;;;;;15.99;73.66;99253.81;4099944;28;20603;-54
2022/06/11 05:35:38;;;;;;;3.08;2.60;;;;;;;16.11;73.28;99251.69;4100083;28;20262;-56
2022/06/11 05:37:39;;;;;;;5.20;2.78;;;;;;;16.10;72.76;99250.00;4099352;28;20301;-54
2022/06/11 05:39:43;;;;;;;5.18;3.40;;;;;;;16.15;73.14;99250.03;4093926;28;20210;-58
2022/06/11 05:41:45;;;;;;;5.68;2.20;;;;;;;16.22;72.75;99253.38;4099128;28;20262;-56
2022/06/11 05:43:47;;;;;;;4.63;2.17;;;;;;;16.24;72.84;99245.66;4096472;28;20598;-55
2022/06/11 05:45:53;;;;;;;6.40;2.30;;;;;;;16.34;72.76;99262.28;4093255;28;20222;-55
2022/06/11 05:47:56;;;;;;;4.65;2.38;;;;;;;16.50;72.82;99264.03;4109685;28;20207;-54
2022/06/11 05:50:00;;;;;;;3.55;2.30;;;;;;;16.57;72.33;99256.34;4091851;28;20699;-54
2022/06/11 05:52:06;;;;;;;3.13;2.53;;;;;;;16.55;72.37;99264.06;4092839;28;20203;-55
2022/06/11 05:54:15;;;;;;;2.60;2.28;;;;;;;16.73;71.30;99258.06;4092242;28;20258;-55
2022/06/11 05:56:17;;;;;;;2.17;1.98;;;;;;;16.84;71.48;99259.75;4089977;28;20305;-55
2022/06/11 05:58:23;;;;;;;6.10;2.33;;;;;;;16.90;72.03;99255.91;4093556;28;20785;-55
2022/06/11 06:00:25;;;;;;;5.00;2.08;;;;;;;17.01;72.03;99260.34;4094356;28;20297;-54
2022/06/11 06:02:27;;;;;;;8.63;2.20;;;;;;;16.92;71.72;99258.41;4111955;28;20230;-55
2022/06/11 06:04:29;;;;;;;3.08;1.90;;;;;;;16.96;71.42;99256.75;4097473;28;20302;-54
2022/06/11 06:06:31;;;;;;;2.85;2.25;;;;;;;17.08;72.06;99252.63;4095574;28;20213;-55
2022/06/11 06:08:33;;;;;;;6.40;1.98;;;;;;;17.14;70.81;99254.28;4090362;28;20237;-54
2022/06/11 06:10:34;;;;;;;2.85;2.10;;;;;;;17.20;71.39;99261.50;4092099;28;20660;-56
2022/06/11 06:12:36;;;;;;;4.72;2.92;;;;;;;17.33;71.10;99266.50;4090218;28;20321;-57
2022/06/11 06:14:38;;;;;;;2.38;2.15;;;;;;;17.46;70.73;99266.00;4092612;28;20221;-55
2022/06/11 06:16:39;;;;;;;5.75;1.70;;;;;;;17.40;70.36;99265.13;4101000;28;20628;-54
2022/06/11 06:18:41;;;;;;;4.40;2.40;;;;;;;17.50;70.37;99267.06;4099823;28;20750;-56
2022/06/11 06:20:43;;;;;;;2.40;2.20;;;;;;;17.64;70.48;99257.94;4093692;28;20194;-57
2022/06/11 06:22:44;;;;;;;5.18;2.47;;;;;;;17.69;70.84;99266.25;4094145;28;20801;-56
2022/06/11 06:24:47;;;;;;;3.03;2.10;;;;;;;17.87;70.14;99264.84;4095413;28;20208;-54
2022/06/11 06:26:49;;;;;;;5.32;2.97;;;;;;;17.90;69.76;99262.38;4095077;28;20211;-54
2022/06/11 06:28:51;;;;;;;3.38;2.88;;;;;;;17.95;69.86;99273.44;4091357;28;20267;-53
2022/06/11 06:30:52;;;;;;;2.63;1.95;;;;;;;18.07;69.47;99268.44;4093959;28;20707;-53
2022/06/11 06:32:54;;;;;;;3.65;2.50;;;;;;;18.24;69.42;99265.34;4098079;28;20572;-53
2022/06/11 06:34:56;;;;;;;4.00;2.45;;;;;;;18.41;69.42;99268.66;4090850;28;20210;-55
2022/06/11 06:36:57;;;;;;;3.67;2.05;;;;;;;18.61;69.38;99268.56;4090623;28;20202;-55
2022/06/11 06:38:59;;;;;;;3.15;2.45;;;;;;;18.63;68.61;99272.72;4092048;28;20203;-54
2022/06/11 06:41:01;;;;;;;5.18;2.78;;;;;;;18.77;68.93;99271.00;4092259;28;20203;-54
2022/06/11 06:43:03;;;;;;;4.60;2.67;;;;;;;18.84;68.45;99265.16;4092560;28;20235;-56
2022/06/11 06:45:05;;;;;;;12.05;3.30;;;;;;;18.97;68.52;99267.31;4094477;28;20755;-55
2022/06/11 06:47:06;;;;;;;3.50;3.20;;;;;;;19.29;68.25;99270.44;4086464;28;20211;-58
2022/06/11 06:49:09;;;;;;;7.18;3.60;;;;;;;19.57;67.56;99272.47;4086741;28;20226;-55
2022/06/11 06:51:11;;;;;;;5.00;3.38;;;;;;;19.87;65.54;99266.66;4092088;28;20204;-57
2022/06/11 06:53:13;;;;;;;6.55;3.45;;;;;;;20.03;64.76;99273.72;4090539;28;20254;-59
2022/06/11 06:55:15;;;;;;;5.97;3.60;;;;;;;20.09;64.90;99264.22;4092948;28;20294;-58
2022/06/11 06:57:17;;;;;;;5.82;2.80;;;;;;;20.27;64.49;99269.06;4098764;28;20294;-58
2022/06/11 06:59:19;;;;;;;3.45;2.60;;;;;;;20.50;63.96;99277.41;4094648;28;20212;-57
2022/06/11 07:01:20;;;;;;;7.00;3.33;;;;;;;20.68;63.57;99276.66;4100198;28;20221;-57
2022/06/11 07:03:22;;;;;;;3.58;3.28;;;;;;;20.91;62.49;99280.56;4111802;28;20278;-56
2022/06/11 07:05:25;;;;;;;13.35;4.10;;;;;;;21.03;62.23;99280.94;4094666;28;20285;-55
2022/06/11 07:07:27;;;;;;;7.30;3.20;;;;;;;21.16;61.77;99282.97;4091636;28;20459;-58
2022/06/11 07:09:29;;;;;;;4.97;3.42;;;;;;;21.07;60.42;99274.50;4090843;28;20223;-58
2022/06/11 07:11:31;;;;;;;5.18;3.10;;;;;;;21.10;61.32;99270.28;4090061;28;20216;-57
2022/06/11 07:13:33;;;;;;;3.67;2.63;;;;;;;21.06;61.34;99272.00;4085670;28;20237;-57
2022/06/11 07:15:35;;;;;;;3.47;3.17;;;;;;;21.14;61.12;99265.75;4091674;28;20206;-56
2022/06/11 07:17:44;;;;;;;4.68;3.00;;;;;;;21.11;61.21;99255.25;4091461;28;20206;-57
2022/06/11 07:19:48;;;;;;;3.47;2.03;;;;;;;20.91;60.38;99267.47;4095954;28;20569;-57
2022/06/11 07:21:54;;;;;;;3.72;1.60;;;;;;;20.85;60.34;99262.25;4118049;28;20209;-57
2022/06/11 07:23:59;;;;;;;3.58;2.17;;;;;;;21.20;60.53;99264.56;4093526;28;20631;-56
2022/06/11 07:26:03;;;;;;;5.35;2.22;;;;;;;21.33;59.83;99263.81;4090765;28;20210;-57
2022/06/11 07:28:08;;;;;;;4.05;2.33;;;;;;;21.29;58.51;99262.75;4092564;28;20234;-57
2022/06/11 07:30:13;;;;;;;3.00;1.52;;;;;;;21.71;58.44;99259.91;4089384;28;20217;-58
2022/06/11 07:32:17;;;;;;;9.07;2.13;;;;;;;21.73;57.04;99264.03;4091037;28;20241;-55
2022/06/11 07:34:19;;;;;;;2.30;1.20;;;;;;;22.10;57.31;99251.97;4126395;28;20216;-57
2022/06/11 07:36:20;;;;;;;2.78;1.58;;;;;;;22.09;56.23;99255.84;4088886;28;20842;-56
2022/06/11 07:38:22;;;;;;;3.72;1.25;;;;;;;22.23;54.65;99257.53;4095305;28;20233;-57
2022/06/11 07:40:24;;;;;;;4.00;1.27;;;;;;;22.49;54.97;99255.13;4092364;28;20234;-57
2022/06/11 07:42:26;;;;;;;2.28;0.98;;;;;;;22.58;53.57;99254.09;4093732;28;20241;-54
2022/06/11 07:44:27;;;;;;;4.18;1.15;;;;;;;22.91;54.05;99252.81;4091699;28;20214;-57
2022/06/11 07:46:29;;;;;;;3.35;1.00;;;;;;;22.91;53.00;99254.81;4095837;28;20338;-56
2022/06/11 07:48:30;;;;;;;1.38;0.80;;;;;;;23.14;52.72;99256.50;4091666;28;21491;-57
2022/06/11 07:50:35;;;;;;;5.20;1.52;;;;;;;23.13;53.39;99257.66;4091488;28;20227;-58
2022/06/11 07:52:36;;;;;;;2.22;1.10;;;;;;;23.29;54.13;99247.81;4092995;28;20254;-57
2022/06/11 07:54:38;;;;;;;3.97;1.40;;;;;;;23.32;53.54;99255.59;4095344;28;20290;-55
2022/06/11 07:56:39;;;;;;;2.28;1.00;;;;;;;23.52;53.23;99255.09;4098881;28;20202;-56
2022/06/11 07:58:41;;;;;;;2.38;0.73;;;;;;;23.67;53.17;99254.72;4099311;28;20199;-55
2022/06/11 08:00:45;;;;;;;3.65;1.15;;;;;;;23.96;53.38;99257.94;4094250;28;20208;-57
2022/06/11 08:02:47;;;;;;;4.40;1.20;;;;;;;24.25;52.36;99257.13;4089138;28;20233;-56
2022/06/11 08:04:48;;;;;;;2.28;0.90;;;;;;;24.46;53.01;99257.41;4089915;28;20207;-56
2022/06/11 08:06:50;;;;;;;9.80;1.13;;;;;;;24.69;50.51;99262.63;4095571;28;20355;-56
2022/06/11 08:08:52;;;;;;;1.80;0.88;;;;;;;24.57;51.25;99265.22;4094083;28;20777;-55
2022/06/11 08:10:53;;;;;;;4.20;0.90;;;;;;;24.40;50.72;99259.50;4095535;28;20227;-55
2022/06/11 08:12:56;;;;;;;2.55;1.45;;;;;;;24.37;49.75;99260.16;4104513;28;20328;-56
2022/06/11 08:14:57;;;;;;;6.82;1.75;;;;;;;24.60;51.38;99258.97;4109449;28;20212;-58
2022/06/11 08:17:04;;;;;;;3.20;1.27;;;;;;;24.57;49.84;99253.19;4096715;28;20199;-57
2022/06/11 08:19:05;;;;;;;1.45;0.65;;;;;;;24.39;48.94;99257.84;4091515;28;20211;-58
2022/06/11 08:21:08;;;;;;;2.70;1.27;;;;;;;24.48;51.34;99260.69;4094021;28;20696;-56
2022/06/11 08:23:10;;;;;;;1.25;0.80;;;;;;;24.90;51.70;99263.69;4095090;28;21558;-58
2022/06/11 08:25:12;;;;;;;3.67;1.23;;;;;;;25.04;51.52;99267.19;4091190;28;20759;-58
2022/06/11 08:27:14;;;;;;;1.83;1.00;;;;;;;25.33;48.89;99261.81;4094599;28;20202;-57
2022/06/11 08:29:16;;;;;;;3.17;1.38;;;;;;;25.07;47.66;99260.13;4093800;28;20225;-59
2022/06/11 08:31:17;;;;;;;2.50;1.00;;;;;;;24.85;48.00;99261.03;4098930;28;20220;-57
2022/06/11 08:33:19;;;;;;;2.17;1.00;;;;;;;25.10;47.49;99260.28;4097468;28;20597;-56
2022/06/11 08:35:24;;;;;;;2.88;0.73;;;;;;;25.02;47.84;99255.50;4097478;28;20281;-56
2022/06/11 08:37:26;;;;;;;4.90;1.05;;;;;;;25.11;47.23;99258.28;4093961;28;20209;-57
2022/06/11 08:39:27;;;;;;;2.65;0.95;;;;;;;24.97;49.28;99254.81;4095540;28;20234;-58
2022/06/11 08:41:35;;;;;;;4.03;1.00;;;;;;;24.74;48.85;99259.66;4092596;28;20731;-56
2022/06/11 08:43:38;;;;;;;1.60;0.70;;;;;;;24.99;49.07;99256.13;4092118;28;20290;-58
2022/06/11 08:46:11;;;;;;;2.75;1.10;;;;;;;25.38;nan;99258.88;4093676;28;20215;-56
2022/06/11 08:48:18;;;;;;;8.43;0.80;;;;;;;25.39;46.03;99257.72;4090952;28;20215;-57
2022/06/11 08:50:25;;;;;;;4.05;0.80;;;;;;;25.56;47.95;99254.94;4111078;28;20320;-59
2022/06/11 08:52:31;;;;;;;5.65;1.05;;;;;;;25.76;45.60;99248.66;4121815;28;20225;-57
2022/06/11 08:54:36;;;;;;;3.50;1.08;;;;;;;25.67;47.41;99250.63;4097057;28;20438;-56
2022/06/11 08:56:52;;;;;;;0.90;0.52;;;;;;;25.08;45.00;99248.59;4098816;28;20301;-56
2022/06/11 08:59:02;;;;;;;3.95;1.00;;;;;;;25.50;45.79;99244.19;4095203;28;20207;-57
2022/06/11 09:01:11;;;;;;;2.00;0.75;;;;;;;25.84;43.88;99249.78;4091224;28;20290;-58
2022/06/11 09:03:47;;;;;;;1.60;0.88;;;;;;;25.35;44.26;99242.72;4106684;28;20308;-58
2022/06/11 09:06:32;;;;;;;1.70;0.60;;;;;;;24.75;45.77;99255.75;4089346;28;20231;-58
2022/06/11 09:08:43;;;;;;;4.05;1.08;;;;;;;24.39;46.50;99240.25;4091674;28;20214;-57
2022/06/11 09:11:04;;;;;;;7.63;0.90;;;;;;;24.91;45.13;99248.53;4097442;28;20309;-57
2022/06/11 09:13:08;;;;;;;4.82;0.80;;;;;;;25.30;45.10;99236.44;4094003;28;20317;-56
2022/06/11 09:15:32;;;;;;;2.47;0.50;;;;;;;25.55;44.63;99239.25;4092487;28;20649;-59
2022/06/11 09:17:58;;;;;;;1.67;0.90;;;;;;;26.00;46.96;99243.34;4095970;28;20219;-56
2022/06/11 09:20:11;;;;;;;2.42;0.77;;;;;;;25.90;43.60;99232.50;4092697;28;20227;-58
2022/06/11 09:22:40;;;;;;;2.55;1.00;;;;;;;25.44;44.14;99239.91;4090149;28;20225;-59
2022/06/11 09:25:04;;;;;;;2.47;1.08;;;;;;;25.72;45.30;99242.03;4093874;28;20241;-58
2022/06/11 09:27:16;;;;;;;1.85;0.90;;;;;;;25.81;46.24;99240.06;4098238;28;20215;-57
2022/06/11 09:29:41;;;;;;;2.53;0.73;;;;;;;25.92;45.89;99247.00;4115206;28;20241;-57
2022/06/11 09:31:50;;;;;;;6.07;0.98;;;;;;;26.26;44.55;99241.31;4100331;28;20723;-58
2022/06/11 09:34:08;;;;;;;3.42;1.00;;;;;;;26.49;48.05;99245.53;4099074;28;20264;-57
2022/06/11 09:36:21;;;;;;;3.97;0.90;;;;;;;26.68;44.48;99246.00;4094987;28;20211;-57
2022/06/11 09:38:35;;;;;;;4.40;0.90;;;;;;;26.48;44.13;99243.06;4094114;28;20606;-59
2022/06/11 09:40:44;;;;;;;5.10;0.93;;;;;;;26.87;43.93;99246.38;4108588;28;20244;-58
2022/06/11 09:43:07;;;;;;;2.05;0.88;;;;;;;26.95;45.50;99237.09;4094299;28;20293;-57
2022/06/11 09:45:26;;;;;;;2.28;0.70;;;;;;;27.02;44.07;99237.38;4095708;28;20206;-59
2022/06/11 09:47:41;;;;;;;2.38;1.15;;;;;;;26.74;43.93;99241.84;4087953;28;20332;-58
2022/06/11 09:50:05;;;;;;;3.53;0.80;;;;;;;26.48;45.01;99238.28;4101518;28;20206;-58
2022/06/11 09:52:31;;;;;;;2.25;0.50;;;;;;;26.79;43.88;99244.44;4091921;28;20286;-59